createdAt,value
2018-09-03T00:00:05.982Z,1006.9
2018-09-03T00:01:07.417Z,1006.9
2018-09-03T00:02:08.811Z,1006.9
2018-09-03T00:03:10.237Z,1006.9
2018-09-03T00:04:11.705Z,1006.9
2018-09-03T00:05:13.140Z,1006.9
2018-09-03T00:06:14.600Z,1006.9
2018-09-03T00:07:16.075Z,1006.8
2018-09-03T00:08:17.667Z,1006.8
2018-09-03T00:09:19.284Z,1006.8
2018-09-03T00:10:20.705Z,1006.8
2018-09-03T00:11:22.145Z,1006.8
2018-09-03T00:12:23.557Z,1006.8
2018-09-03T00:13:25.046Z,1006.7
2018-09-03T00:14:26.459Z,1006.7
2018-09-03T00:15:27.953Z,1006.7
2018-09-03T00:16:29.393Z,1006.7
2018-09-03T00:17:30.801Z,1006.7
2018-09-03T00:18:32.246Z,1006.7
2018-09-03T00:19:33.688Z,1006.7
2018-09-03T00:20:35.095Z,1006.7
2018-09-03T00:21:36.491Z,1006.7
2018-09-03T00:22:37.941Z,1006.7
2018-09-03T00:23:39.336Z,1006.7
2018-09-03T00:24:40.801Z,1006.6
2018-09-03T00:25:42.258Z,1006.6
2018-09-03T00:26:43.655Z,1006.6
2018-09-03T00:27:45.049Z,1006.7
2018-09-03T00:28:46.439Z,1006.6
2018-09-03T00:29:47.868Z,1006.6
2018-09-03T00:30:49.301Z,1006.6
2018-09-03T00:31:50.724Z,1006.6
2018-09-03T00:32:52.172Z,1006.5
2018-09-03T00:33:53.595Z,1006.6
2018-09-03T00:34:55.093Z,1006.5
2018-09-03T00:35:56.555Z,1006.5
2018-09-03T00:36:58.017Z,1006.5
2018-09-03T00:37:59.445Z,1006.5
2018-09-03T00:39:00.899Z,1006.4
2018-09-03T00:40:02.372Z,1006.4
2018-09-03T00:41:03.889Z,1006.4
2018-09-03T00:42:05.311Z,1006.4
2018-09-03T00:43:06.791Z,1006.4
2018-09-03T00:44:08.254Z,1006.4
2018-09-03T00:45:09.677Z,1006.3
2018-09-03T00:46:11.115Z,1006.4
2018-09-03T00:47:12.504Z,1006.4
2018-09-03T00:48:13.940Z,1006.4
2018-09-03T00:49:15.425Z,1006.4
2018-09-03T00:50:16.906Z,1006.4
2018-09-03T00:51:18.422Z,1006.4
2018-09-03T00:52:19.836Z,1006.4
2018-09-03T00:53:21.283Z,1006.4
2018-09-03T00:54:22.736Z,1006.4
2018-09-03T00:55:24.205Z,1006.3
2018-09-03T00:56:25.650Z,1006.3
2018-09-03T00:57:27.073Z,1006.2
2018-09-03T00:58:28.463Z,1006.3
2018-09-03T00:59:29.943Z,1006.2
2018-09-03T01:00:31.390Z,1006.2
2018-09-03T01:01:32.790Z,1006.2
2018-09-03T01:02:34.180Z,1006.2
2018-09-03T01:03:35.649Z,1006.2
2018-09-03T01:04:37.075Z,1006.1
2018-09-03T01:05:38.456Z,1006.1
2018-09-03T01:06:39.925Z,1006.2
2018-09-03T01:07:41.351Z,1006.1
2018-09-03T01:08:42.792Z,1006.2
2018-09-03T01:09:44.219Z,1006.2
2018-09-03T01:10:45.613Z,1006.2
2018-09-03T01:11:47.080Z,1006.2
2018-09-03T01:12:48.567Z,1006.2
2018-09-03T01:13:50.050Z,1006.2
2018-09-03T01:14:51.495Z,1006.2
2018-09-03T01:15:52.921Z,1006.2
2018-09-03T01:16:54.374Z,1006.2
2018-09-03T01:17:55.909Z,1006.1
2018-09-03T01:18:57.309Z,1006.1
2018-09-03T01:19:58.793Z,1006.1
2018-09-03T01:21:00.188Z,1006.1
2018-09-03T01:22:01.619Z,1006.1
2018-09-03T01:23:03.097Z,1006.1
2018-09-03T01:24:04.588Z,1006.1
2018-09-03T01:25:05.992Z,1006.1
2018-09-03T01:26:07.446Z,1006.1
2018-09-03T01:27:08.810Z,1006.1
2018-09-03T01:28:10.246Z,1006.1
2018-09-03T01:29:11.662Z,1006.1
2018-09-03T01:30:13.056Z,1006.1
2018-09-03T01:31:14.548Z,1006.1
2018-09-03T01:32:15.950Z,1006.0
2018-09-03T01:33:17.390Z,1006.1
2018-09-03T01:34:18.802Z,1006.1
2018-09-03T01:35:20.427Z,1006.1
2018-09-03T01:36:21.853Z,1006.1
2018-09-03T01:37:23.287Z,1006.1
2018-09-03T01:38:24.691Z,1006.1
2018-09-03T01:39:26.167Z,1006.1
2018-09-03T01:40:27.594Z,1006.1
2018-09-03T01:41:29.026Z,1006.1
2018-09-03T01:42:30.489Z,1006.1
2018-09-03T01:43:31.952Z,1006.2
2018-09-03T01:44:33.350Z,1006.2
2018-09-03T01:45:34.741Z,1006.3
2018-09-03T01:46:36.143Z,1006.3
2018-09-03T01:47:37.537Z,1006.3
2018-09-03T01:48:38.971Z,1006.3
2018-09-03T01:49:40.393Z,1006.2
2018-09-03T01:50:41.781Z,1006.2
2018-09-03T01:51:43.176Z,1006.2
2018-09-03T01:52:44.567Z,1006.2
2018-09-03T01:53:46.013Z,1006.2
2018-09-03T01:54:47.503Z,1006.2
2018-09-03T01:55:48.900Z,1006.2
2018-09-03T01:56:50.308Z,1006.2
2018-09-03T01:57:51.700Z,1006.2
2018-09-03T01:58:53.133Z,1006.2
2018-09-03T01:59:54.580Z,1006.2
2018-09-03T02:00:56.071Z,1006.3
2018-09-03T02:01:57.477Z,1006.3
2018-09-03T02:02:58.928Z,1006.3
2018-09-03T02:04:00.423Z,1006.3
2018-09-03T02:05:01.923Z,1006.3
2018-09-03T02:06:03.428Z,1006.3
2018-09-03T02:07:04.881Z,1006.3
2018-09-03T02:08:06.347Z,1006.3
2018-09-03T02:09:07.779Z,1006.4
2018-09-03T02:10:09.170Z,1006.4
2018-09-03T02:11:10.602Z,1006.4
2018-09-03T02:12:12.090Z,1006.4
2018-09-03T02:13:13.508Z,1006.4
2018-09-03T02:14:14.917Z,1006.5
2018-09-03T02:15:16.316Z,1006.4
2018-09-03T02:16:17.765Z,1006.4
2018-09-03T02:17:19.272Z,1006.4
2018-09-03T02:18:20.688Z,1006.5
2018-09-03T02:19:22.148Z,1006.5
2018-09-03T02:20:24.363Z,1006.5
2018-09-03T02:21:25.806Z,1006.5
2018-09-03T02:22:27.259Z,1006.5
2018-09-03T02:23:28.749Z,1006.5
2018-09-03T02:24:30.141Z,1006.5
2018-09-03T02:25:31.577Z,1006.5
2018-09-03T02:26:33.039Z,1006.5
2018-09-03T02:27:34.506Z,1006.5
2018-09-03T02:28:35.947Z,1006.6
2018-09-03T02:29:37.430Z,1006.5
2018-09-03T02:30:38.878Z,1006.6
2018-09-03T02:31:40.343Z,1006.6
2018-09-03T02:32:41.755Z,1006.6
2018-09-03T02:33:43.220Z,1006.6
2018-09-03T02:34:44.619Z,1006.6
2018-09-03T02:35:46.018Z,1006.5
2018-09-03T02:36:47.424Z,1006.5
2018-09-03T02:37:48.910Z,1006.4
2018-09-03T02:38:50.313Z,1006.4
2018-09-03T02:39:51.776Z,1006.5
2018-09-03T02:40:53.171Z,1006.5
2018-09-03T02:41:54.606Z,1006.5
2018-09-03T02:42:55.986Z,1006.5
2018-09-03T02:43:57.377Z,1006.4
2018-09-03T02:44:58.789Z,1006.4
2018-09-03T02:46:00.224Z,1006.3
2018-09-03T02:47:01.615Z,1006.3
2018-09-03T02:48:03.043Z,1006.3
2018-09-03T02:49:04.533Z,1006.3
2018-09-03T02:50:06.071Z,1006.3
2018-09-03T02:51:07.519Z,1006.3
2018-09-03T02:52:08.960Z,1006.3
2018-09-03T02:53:10.403Z,1006.3
2018-09-03T02:54:11.883Z,1006.4
2018-09-03T02:55:13.290Z,1006.3
2018-09-03T02:56:14.687Z,1006.4
2018-09-03T02:57:16.073Z,1006.3
2018-09-03T02:58:17.509Z,1006.4
2018-09-03T02:59:18.943Z,1006.3
2018-09-03T03:00:20.350Z,1006.4
2018-09-03T03:01:21.816Z,1006.4
2018-09-03T03:02:23.416Z,1006.4
2018-09-03T03:03:25.023Z,1006.4
2018-09-03T03:04:26.433Z,1006.4
2018-09-03T03:05:27.855Z,1006.4
2018-09-03T03:06:29.313Z,1006.3
2018-09-03T03:07:30.786Z,1006.2
2018-09-03T03:08:32.192Z,1006.2
2018-09-03T03:09:33.589Z,1006.2
2018-09-03T03:10:35.049Z,1006.2
2018-09-03T03:11:36.466Z,1006.2
2018-09-03T03:12:37.825Z,1006.2
2018-09-03T03:13:39.298Z,1006.2
2018-09-03T03:14:40.704Z,1006.1
2018-09-03T03:15:42.197Z,1006.1
2018-09-03T03:16:43.540Z,1006.1
2018-09-03T03:17:45.001Z,1006.1
2018-09-03T03:18:46.509Z,1006.1
2018-09-03T03:19:47.897Z,1006.1
2018-09-03T03:20:49.333Z,1006.1
2018-09-03T03:21:50.783Z,1006.1
2018-09-03T03:22:52.235Z,1006.1
2018-09-03T03:23:53.656Z,1006.1
2018-09-03T03:24:55.051Z,1006.2
2018-09-03T03:25:56.489Z,1006.1
2018-09-03T03:26:57.947Z,1006.1
2018-09-03T03:27:59.439Z,1006.2
2018-09-03T03:29:00.903Z,1006.2
2018-09-03T03:30:02.368Z,1006.1
2018-09-03T03:31:03.718Z,1006.2
2018-09-03T03:32:05.105Z,1006.1
2018-09-03T03:33:06.576Z,1006.1
2018-09-03T03:34:08.081Z,1006.1
2018-09-03T03:35:09.475Z,1006.1
2018-09-03T03:36:10.905Z,1006.1
2018-09-03T03:37:12.369Z,1006.0
2018-09-03T03:38:13.799Z,1006.0
2018-09-03T03:39:15.193Z,1006.1
2018-09-03T03:40:16.603Z,1006.0
2018-09-03T03:41:18.034Z,1006.0
2018-09-03T03:42:19.524Z,1006.0
2018-09-03T03:43:20.993Z,1006.0
2018-09-03T03:44:22.413Z,1006.0
2018-09-03T03:45:23.911Z,1005.9
2018-09-03T03:46:25.452Z,1005.9
2018-09-03T03:47:26.905Z,1005.9
2018-09-03T03:48:28.373Z,1005.9
2018-09-03T03:49:29.794Z,1005.9
2018-09-03T03:50:31.188Z,1005.9
2018-09-03T03:51:32.630Z,1005.9
2018-09-03T03:52:34.013Z,1005.9
2018-09-03T03:53:35.419Z,1005.9
2018-09-03T03:54:36.899Z,1005.9
2018-09-03T03:55:38.354Z,1005.9
2018-09-03T03:56:39.814Z,1005.9
2018-09-03T03:57:41.223Z,1005.9
2018-09-03T03:58:42.700Z,1005.9
2018-09-03T03:59:44.099Z,1005.9
2018-09-03T04:00:45.541Z,1005.8
2018-09-03T04:01:46.939Z,1005.8
2018-09-03T04:02:48.409Z,1005.8
2018-09-03T04:03:49.885Z,1005.8
2018-09-03T04:04:51.284Z,1005.8
2018-09-03T04:05:52.751Z,1005.8
2018-09-03T04:06:54.164Z,1005.8
2018-09-03T04:07:55.622Z,1005.7
2018-09-03T04:08:57.097Z,1005.7
2018-09-03T04:09:58.488Z,1005.7
2018-09-03T04:10:59.908Z,1005.7
2018-09-03T04:12:01.330Z,1005.7
2018-09-03T04:13:02.788Z,1005.7
2018-09-03T04:14:04.175Z,1005.7
2018-09-03T04:15:05.646Z,1005.7
2018-09-03T04:16:07.148Z,1005.7
2018-09-03T04:17:08.562Z,1005.7
2018-09-03T04:18:10.018Z,1005.8
2018-09-03T04:19:11.437Z,1005.7
2018-09-03T04:20:12.848Z,1005.8
2018-09-03T04:21:14.270Z,1005.7
2018-09-03T04:22:15.698Z,1005.8
2018-09-03T04:23:17.160Z,1005.8
2018-09-03T04:24:18.548Z,1005.8
2018-09-03T04:25:19.993Z,1005.8
2018-09-03T04:26:21.439Z,1005.8
2018-09-03T04:27:22.941Z,1005.8
2018-09-03T04:28:24.357Z,1005.8
2018-09-03T04:29:25.852Z,1005.8
2018-09-03T04:30:27.376Z,1005.8
2018-09-03T04:31:28.787Z,1005.8
2018-09-03T04:32:30.234Z,1005.8
2018-09-03T04:33:31.692Z,1005.8
2018-09-03T04:34:33.146Z,1005.8
2018-09-03T04:35:34.600Z,1005.8
2018-09-03T04:36:36.058Z,1005.8
2018-09-03T04:37:37.456Z,1005.8
2018-09-03T04:38:38.885Z,1005.8
2018-09-03T04:39:40.302Z,1005.8
2018-09-03T04:40:41.738Z,1005.8
2018-09-03T04:41:43.139Z,1005.8
2018-09-03T04:42:44.572Z,1005.8
2018-09-03T04:43:45.978Z,1005.8
2018-09-03T04:44:47.411Z,1005.7
2018-09-03T04:45:48.885Z,1005.7
2018-09-03T04:46:50.294Z,1005.7
2018-09-03T04:47:51.744Z,1005.7
2018-09-03T04:48:53.164Z,1005.7
2018-09-03T04:49:54.559Z,1005.7
2018-09-03T04:50:56.007Z,1005.7
2018-09-03T04:51:57.462Z,1005.7
2018-09-03T04:52:58.909Z,1005.7
2018-09-03T04:54:00.363Z,1005.7
2018-09-03T04:55:01.766Z,1005.6
2018-09-03T04:56:03.206Z,1005.6
2018-09-03T04:57:04.597Z,1005.6
2018-09-03T04:58:05.996Z,1005.6
2018-09-03T04:59:07.416Z,1005.6
2018-09-03T05:00:08.808Z,1005.6
2018-09-03T05:01:10.207Z,1005.7
2018-09-03T05:02:11.603Z,1005.7
2018-09-03T05:03:13.067Z,1005.7
2018-09-03T05:04:14.470Z,1005.7
2018-09-03T05:05:15.941Z,1005.7
2018-09-03T05:06:17.390Z,1005.7
2018-09-03T05:07:18.801Z,1005.7
2018-09-03T05:08:20.285Z,1005.6
2018-09-03T05:09:21.721Z,1005.6
2018-09-03T05:10:23.145Z,1005.6
2018-09-03T05:11:24.574Z,1005.6
2018-09-03T05:12:26.055Z,1005.6
2018-09-03T05:13:27.441Z,1005.6
2018-09-03T05:14:28.950Z,1005.6
2018-09-03T05:15:30.426Z,1005.7
2018-09-03T05:16:31.838Z,1005.6
2018-09-03T05:17:33.280Z,1005.6
2018-09-03T05:18:34.723Z,1005.6
2018-09-03T05:19:36.184Z,1005.7
2018-09-03T05:20:37.607Z,1005.6
2018-09-03T05:21:39.107Z,1005.7
2018-09-03T05:22:40.502Z,1005.7
2018-09-03T05:23:42.004Z,1005.7
2018-09-03T05:24:43.455Z,1005.7
2018-09-03T05:25:44.848Z,1005.7
2018-09-03T05:26:46.277Z,1005.6
2018-09-03T05:27:47.706Z,1005.6
2018-09-03T05:28:49.139Z,1005.6
2018-09-03T05:29:50.581Z,1005.6
2018-09-03T05:30:52.033Z,1005.6
2018-09-03T05:31:53.609Z,1005.6
2018-09-03T05:32:55.090Z,1005.7
2018-09-03T05:33:56.608Z,1005.7
2018-09-03T05:34:57.979Z,1005.6
2018-09-03T05:35:59.465Z,1005.7
2018-09-03T05:37:00.912Z,1005.7
2018-09-03T05:38:02.309Z,1005.7
2018-09-03T05:39:03.711Z,1005.6
2018-09-03T05:40:05.115Z,1005.7
2018-09-03T05:41:06.509Z,1005.7
2018-09-03T05:42:08.005Z,1005.7
2018-09-03T05:43:09.505Z,1005.8
2018-09-03T05:44:10.856Z,1005.8
2018-09-03T05:45:12.355Z,1005.8
2018-09-03T05:46:13.764Z,1005.8
2018-09-03T05:47:15.211Z,1005.8
2018-09-03T05:48:16.710Z,1005.8
2018-09-03T05:49:18.112Z,1005.8
2018-09-03T05:50:19.631Z,1005.8
2018-09-03T05:51:20.974Z,1005.8
2018-09-03T05:52:22.461Z,1005.7
2018-09-03T05:53:23.929Z,1005.7
2018-09-03T05:54:25.338Z,1005.7
2018-09-03T05:55:26.750Z,1005.7
2018-09-03T05:56:28.228Z,1005.7
2018-09-03T05:57:29.923Z,1005.7
2018-09-03T05:58:31.402Z,1005.6
2018-09-03T05:59:32.794Z,1005.6
2018-09-03T06:00:34.274Z,1005.6
2018-09-03T06:01:35.707Z,1005.5
2018-09-03T06:02:37.104Z,1005.5
2018-09-03T06:03:38.573Z,1005.5
2018-09-03T06:04:40.001Z,1005.5
2018-09-03T06:05:41.417Z,1005.5
2018-09-03T06:06:42.867Z,1005.5
2018-09-03T06:07:45.132Z,1005.6
2018-09-03T06:08:46.561Z,1005.6
2018-09-03T06:09:47.984Z,1005.6
2018-09-03T06:10:49.425Z,1005.6
2018-09-03T06:11:50.838Z,1005.6
2018-09-03T06:12:52.262Z,1005.6
2018-09-03T06:13:53.808Z,1005.5
2018-09-03T06:14:55.275Z,1005.6
2018-09-03T06:15:56.666Z,1005.5
2018-09-03T06:16:58.116Z,1005.5
2018-09-03T06:17:59.561Z,1005.5
2018-09-03T06:19:01.049Z,1005.5
2018-09-03T06:20:02.487Z,1005.6
2018-09-03T06:21:03.880Z,1005.6
2018-09-03T06:22:05.373Z,1005.6
2018-09-03T06:23:06.810Z,1005.6
2018-09-03T06:24:08.211Z,1005.6
2018-09-03T06:25:09.660Z,1005.6
2018-09-03T06:26:11.124Z,1005.6
2018-09-03T06:27:12.561Z,1005.6
2018-09-03T06:28:14.026Z,1005.6
2018-09-03T06:29:15.479Z,1005.6
2018-09-03T06:30:16.926Z,1005.5
2018-09-03T06:31:18.371Z,1005.6
2018-09-03T06:32:19.816Z,1005.6
2018-09-03T06:33:21.282Z,1005.6
2018-09-03T06:34:22.739Z,1005.6
2018-09-03T06:35:24.118Z,1005.6
2018-09-03T06:36:25.601Z,1005.5
2018-09-03T06:37:27.056Z,1005.6
2018-09-03T06:38:28.549Z,1005.6
2018-09-03T06:39:30.075Z,1005.6
2018-09-03T06:40:31.649Z,1005.6
2018-09-03T06:41:33.354Z,1005.6
2018-09-03T06:42:34.775Z,1005.6
2018-09-03T06:43:36.175Z,1005.5
2018-09-03T06:44:37.608Z,1005.5
2018-09-03T06:45:39.045Z,1005.5
2018-09-03T06:46:40.475Z,1005.5
2018-09-03T06:47:42.018Z,1005.4
2018-09-03T06:48:43.505Z,1005.4
2018-09-03T06:49:44.911Z,1005.4
2018-09-03T06:50:46.373Z,1005.3
2018-09-03T06:51:47.830Z,1005.4
2018-09-03T06:52:49.329Z,1005.4
2018-09-03T06:53:50.679Z,1005.4
2018-09-03T06:54:52.119Z,1005.4
2018-09-03T06:55:53.632Z,1005.4
2018-09-03T06:56:55.110Z,1005.4
2018-09-03T06:57:56.553Z,1005.4
2018-09-03T06:58:57.988Z,1005.4
2018-09-03T06:59:59.450Z,1005.4
2018-09-03T07:01:00.863Z,1005.4
2018-09-03T07:02:02.277Z,1005.4
2018-09-03T07:03:03.721Z,1005.4
2018-09-03T07:04:05.251Z,1005.4
2018-09-03T07:05:06.669Z,1005.5
2018-09-03T07:06:08.092Z,1005.5
2018-09-03T07:07:09.548Z,1005.5
2018-09-03T07:08:10.973Z,1005.4
2018-09-03T07:09:12.466Z,1005.4
2018-09-03T07:10:13.904Z,1005.4
2018-09-03T07:11:15.340Z,1005.5
2018-09-03T07:12:16.828Z,1005.4
2018-09-03T07:13:18.285Z,1005.4
2018-09-03T07:14:19.805Z,1005.4
2018-09-03T07:15:21.281Z,1005.5
2018-09-03T07:16:22.681Z,1005.4
2018-09-03T07:17:24.092Z,1005.4
2018-09-03T07:18:25.508Z,1005.4
2018-09-03T07:19:26.917Z,1005.4
2018-09-03T07:20:28.416Z,1005.4
2018-09-03T07:21:29.943Z,1005.4
2018-09-03T07:22:31.477Z,1005.4
2018-09-03T07:23:32.870Z,1005.4
2018-09-03T07:24:34.308Z,1005.4
2018-09-03T07:25:35.808Z,1005.4
2018-09-03T07:26:37.201Z,1005.4
2018-09-03T07:27:38.675Z,1005.4
2018-09-03T07:28:40.122Z,1005.4
2018-09-03T07:29:41.568Z,1005.3
2018-09-03T07:30:42.997Z,1005.4
2018-09-03T07:31:44.584Z,1005.5
2018-09-03T07:32:46.022Z,1005.4
2018-09-03T07:33:47.445Z,1005.4
2018-09-03T07:34:48.874Z,1005.4
2018-09-03T07:35:50.279Z,1005.4
2018-09-03T07:36:51.723Z,1005.4
2018-09-03T07:37:53.156Z,1005.5
2018-09-03T07:38:54.591Z,1005.4
2018-09-03T07:39:56.028Z,1005.4
2018-09-03T07:40:57.453Z,1005.4
2018-09-03T07:41:58.861Z,1005.4
2018-09-03T07:43:00.338Z,1005.4
2018-09-03T07:44:01.755Z,1005.4
2018-09-03T07:45:03.224Z,1005.4
2018-09-03T07:46:04.663Z,1005.4
2018-09-03T07:47:06.086Z,1005.4
2018-09-03T07:48:07.518Z,1005.4
2018-09-03T07:49:08.926Z,1005.4
2018-09-03T07:50:10.363Z,1005.4
2018-09-03T07:51:11.834Z,1005.3
2018-09-03T07:52:13.193Z,1005.4
2018-09-03T07:53:14.632Z,1005.3
2018-09-03T07:54:16.087Z,1005.4
2018-09-03T07:55:17.584Z,1005.4
2018-09-03T07:56:18.997Z,1005.3
2018-09-03T07:57:20.457Z,1005.4
2018-09-03T07:58:21.895Z,1005.4
2018-09-03T07:59:23.372Z,1005.3
2018-09-03T08:00:24.755Z,1005.3
2018-09-03T08:01:26.168Z,1005.3
2018-09-03T08:02:27.612Z,1005.3
2018-09-03T08:03:29.011Z,1005.4
2018-09-03T08:04:30.438Z,1005.4
2018-09-03T08:05:32.062Z,1005.4
2018-09-03T08:06:33.479Z,1005.4
2018-09-03T08:07:34.960Z,1005.5
2018-09-03T08:08:36.417Z,1005.4
2018-09-03T08:09:37.864Z,1005.4
2018-09-03T08:10:39.345Z,1005.4
2018-09-03T08:11:40.766Z,1005.4
2018-09-03T08:12:42.176Z,1005.4
2018-09-03T08:13:43.600Z,1005.4
2018-09-03T08:14:45.078Z,1005.4
2018-09-03T08:15:46.499Z,1005.4
2018-09-03T08:16:47.910Z,1005.4
2018-09-03T08:17:49.303Z,1005.4
2018-09-03T08:18:50.720Z,1005.4
2018-09-03T08:19:52.214Z,1005.4
2018-09-03T08:20:53.552Z,1005.3
2018-09-03T08:21:54.946Z,1005.4
2018-09-03T08:22:56.345Z,1005.4
2018-09-03T08:23:57.765Z,1005.4
2018-09-03T08:24:59.187Z,1005.4
2018-09-03T08:26:00.614Z,1005.4
2018-09-03T08:27:02.066Z,1005.4
2018-09-03T08:28:03.536Z,1005.4
2018-09-03T08:29:04.992Z,1005.4
2018-09-03T08:30:06.404Z,1005.4
2018-09-03T08:31:07.791Z,1005.4
2018-09-03T08:32:09.243Z,1005.4
2018-09-03T08:33:10.643Z,1005.4
2018-09-03T08:34:12.075Z,1005.4
2018-09-03T08:35:13.519Z,1005.4
2018-09-03T08:36:14.951Z,1005.4
2018-09-03T08:37:16.324Z,1005.4
2018-09-03T08:38:17.767Z,1005.4
2018-09-03T08:39:19.199Z,1005.4
2018-09-03T08:40:20.609Z,1005.4
2018-09-03T08:41:22.046Z,1005.4
2018-09-03T08:42:23.508Z,1005.3
2018-09-03T08:43:24.927Z,1005.4
2018-09-03T08:44:26.330Z,1005.4
2018-09-03T08:45:27.759Z,1005.3
2018-09-03T08:46:29.159Z,1005.3
2018-09-03T08:47:30.565Z,1005.2
2018-09-03T08:48:31.962Z,1005.2
2018-09-03T08:49:33.546Z,1005.2
2018-09-03T08:50:35.046Z,1005.2
2018-09-03T08:51:36.499Z,1005.2
2018-09-03T08:52:37.909Z,1005.2
2018-09-03T08:53:39.340Z,1005.2
2018-09-03T08:54:40.819Z,1005.3
2018-09-03T08:55:42.222Z,1005.3
2018-09-03T08:56:43.683Z,1005.3
2018-09-03T08:57:45.068Z,1005.3
2018-09-03T08:58:46.473Z,1005.3
2018-09-03T08:59:47.926Z,1005.3
2018-09-03T09:00:49.358Z,1005.3
2018-09-03T09:01:50.806Z,1005.3
2018-09-03T09:02:52.259Z,1005.3
2018-09-03T09:03:53.699Z,1005.3
2018-09-03T09:04:55.107Z,1005.4
2018-09-03T09:05:56.753Z,1005.4
2018-09-03T09:06:58.153Z,1005.4
2018-09-03T09:07:59.804Z,1005.4
2018-09-03T09:09:01.222Z,1005.4
2018-09-03T09:10:02.794Z,1005.4
2018-09-03T09:11:04.236Z,1005.4
2018-09-03T09:12:05.675Z,1005.4
2018-09-03T09:13:07.114Z,1005.4
2018-09-03T09:14:08.568Z,1005.4
2018-09-03T09:15:10.242Z,1005.4
2018-09-03T09:16:11.889Z,1005.4
2018-09-03T09:17:13.417Z,1005.4
2018-09-03T09:18:14.926Z,1005.4
2018-09-03T09:19:16.498Z,1005.3
2018-09-03T09:20:17.993Z,1005.3
2018-09-03T09:21:19.439Z,1005.3
2018-09-03T09:22:20.966Z,1005.4
2018-09-03T09:23:22.386Z,1005.4
2018-09-03T09:24:23.897Z,1005.3
2018-09-03T09:25:25.232Z,1005.4
2018-09-03T09:26:26.657Z,1005.4
2018-09-03T09:27:28.068Z,1005.4
2018-09-03T09:28:29.504Z,1005.4
2018-09-03T09:29:30.917Z,1005.4
2018-09-03T09:30:32.422Z,1005.4
2018-09-03T09:31:33.961Z,1005.4
2018-09-03T09:32:35.536Z,1005.4
2018-09-03T09:33:36.777Z,1005.4
2018-09-03T09:34:38.178Z,1005.4
2018-09-03T09:35:39.701Z,1005.4
2018-09-03T09:36:41.090Z,1005.3
2018-09-03T09:37:42.455Z,1005.4
2018-09-03T09:38:43.870Z,1005.3
2018-09-03T09:39:45.427Z,1005.4
2018-09-03T09:40:46.851Z,1005.3
2018-09-03T09:41:48.315Z,1005.3
2018-09-03T09:42:49.721Z,1005.3
2018-09-03T09:43:51.135Z,1005.3
2018-09-03T09:44:52.606Z,1005.3
2018-09-03T09:45:54.046Z,1005.2
2018-09-03T09:46:55.459Z,1005.2
2018-09-03T09:47:57.148Z,1005.2
2018-09-03T09:48:58.545Z,1005.2
2018-09-03T09:49:59.968Z,1005.2
2018-09-03T09:51:01.381Z,1005.2
2018-09-03T09:52:02.851Z,1005.2
2018-09-03T09:53:04.242Z,1005.2
2018-09-03T09:54:05.636Z,1005.2
2018-09-03T09:55:07.153Z,1005.2
2018-09-03T09:56:08.627Z,1005.2
2018-09-03T09:57:10.086Z,1005.2
2018-09-03T09:58:11.484Z,1005.2
2018-09-03T09:59:12.877Z,1005.2
2018-09-03T10:00:14.340Z,1005.2
2018-09-03T10:01:15.794Z,1005.1
2018-09-03T10:02:17.190Z,1005.1
2018-09-03T10:03:18.613Z,1005.1
2018-09-03T10:04:20.162Z,1005.1
2018-09-03T10:05:21.523Z,1005.2
2018-09-03T10:06:22.918Z,1005.2
2018-09-03T10:07:24.378Z,1005.1
2018-09-03T10:08:25.813Z,1005.0
2018-09-03T10:09:27.240Z,1005.0
2018-09-03T10:10:28.636Z,1005.0
2018-09-03T10:11:30.116Z,1004.9
2018-09-03T10:12:31.601Z,1004.9
2018-09-03T10:13:32.928Z,1004.9
2018-09-03T10:14:34.542Z,1004.9
2018-09-03T10:15:35.997Z,1004.9
2018-09-03T10:16:37.467Z,1005.0
2018-09-03T10:17:38.867Z,1005.0
2018-09-03T10:18:40.346Z,1005.0
2018-09-03T10:19:41.854Z,1005.0
2018-09-03T10:20:43.242Z,1005.0
2018-09-03T10:21:44.703Z,1005.0
2018-09-03T10:22:46.121Z,1005.0
2018-09-03T10:23:47.554Z,1005.0
2018-09-03T10:24:48.956Z,1005.0
2018-09-03T10:25:50.398Z,1004.9
2018-09-03T10:26:51.799Z,1004.9
2018-09-03T10:27:53.199Z,1004.9
2018-09-03T10:28:54.637Z,1004.9
2018-09-03T10:29:56.033Z,1004.9
2018-09-03T10:30:57.435Z,1004.8
2018-09-03T10:31:58.902Z,1004.9
2018-09-03T10:33:00.369Z,1004.8
2018-09-03T10:34:01.821Z,1004.8
2018-09-03T10:35:03.238Z,1004.7
2018-09-03T10:36:04.721Z,1004.8
2018-09-03T10:37:06.146Z,1004.8
2018-09-03T10:38:07.576Z,1004.8
2018-09-03T10:39:09.003Z,1004.8
2018-09-03T10:40:10.460Z,1004.8
2018-09-03T10:41:11.926Z,1004.8
2018-09-03T10:42:13.327Z,1004.8
2018-09-03T10:43:14.756Z,1004.7
2018-09-03T10:44:16.153Z,1004.7
2018-09-03T10:45:17.562Z,1004.8
2018-09-03T10:46:19.022Z,1004.8
2018-09-03T10:47:20.521Z,1004.8
2018-09-03T10:48:21.949Z,1004.8
2018-09-03T10:49:23.352Z,1004.7
2018-09-03T10:50:24.822Z,1004.7
2018-09-03T10:51:26.227Z,1004.7
2018-09-03T10:52:27.711Z,1004.7
2018-09-03T10:53:29.194Z,1004.7
2018-09-03T10:54:32.804Z,1004.7
2018-09-03T10:55:34.738Z,1004.7
2018-09-03T10:56:36.126Z,1004.7
2018-09-03T10:57:37.575Z,1004.7
2018-09-03T10:58:39.146Z,1004.7
2018-09-03T10:59:40.815Z,1004.7
2018-09-03T11:00:42.337Z,1004.7
2018-09-03T11:01:43.782Z,1004.7
2018-09-03T11:02:45.184Z,1004.7
2018-09-03T11:03:46.582Z,1004.7
2018-09-03T11:04:47.983Z,1004.7
2018-09-03T11:05:49.676Z,1004.7
2018-09-03T11:06:51.124Z,1004.6
2018-09-03T11:07:52.524Z,1004.6
2018-09-03T11:08:54.025Z,1004.6
2018-09-03T11:09:55.811Z,1004.6
2018-09-03T11:10:57.204Z,1004.7
2018-09-03T11:11:59.151Z,1004.6
2018-09-03T11:13:00.688Z,1004.7
2018-09-03T11:14:02.056Z,1004.6
2018-09-03T11:15:03.519Z,1004.7
2018-09-03T11:16:04.918Z,1004.5
2018-09-03T11:17:06.323Z,1004.5
2018-09-03T11:18:07.853Z,1004.5
2018-09-03T11:19:09.245Z,1004.5
2018-09-03T11:20:10.646Z,1004.5
2018-09-03T11:21:12.138Z,1004.5
2018-09-03T11:22:13.516Z,1004.5
2018-09-03T11:23:14.934Z,1004.5
2018-09-03T11:24:16.333Z,1004.5
2018-09-03T11:25:17.781Z,1004.4
2018-09-03T11:26:19.656Z,1004.4
2018-09-03T11:27:21.388Z,1004.4
2018-09-03T11:28:22.843Z,1004.4
2018-09-03T11:29:24.682Z,1004.4
2018-09-03T11:30:26.205Z,1004.3
2018-09-03T11:31:27.698Z,1004.3
2018-09-03T11:32:29.218Z,1004.3
2018-09-03T11:33:30.625Z,1004.3
2018-09-03T11:34:32.326Z,1004.3
2018-09-03T11:35:33.782Z,1004.3
2018-09-03T11:36:35.516Z,1004.3
2018-09-03T11:37:36.983Z,1004.3
2018-09-03T11:38:38.682Z,1004.3
2018-09-03T11:39:40.561Z,1004.3
2018-09-03T11:40:42.027Z,1004.3
2018-09-03T11:41:43.979Z,1004.3
2018-09-03T11:42:45.745Z,1004.3
2018-09-03T11:43:47.430Z,1004.3
2018-09-03T11:44:48.972Z,1004.3
2018-09-03T11:45:50.379Z,1004.3
2018-09-03T11:46:51.789Z,1004.2
2018-09-03T11:47:53.259Z,1004.2
2018-09-03T11:48:55.074Z,1004.2
2018-09-03T11:49:56.387Z,1004.2
2018-09-03T11:50:57.874Z,1004.2
2018-09-03T11:51:59.321Z,1004.3
2018-09-03T11:53:00.751Z,1004.3
2018-09-03T11:54:02.222Z,1004.3
2018-09-03T11:55:03.943Z,1004.3
2018-09-03T11:56:05.645Z,1004.3
2018-09-03T11:57:07.180Z,1004.3
2018-09-03T11:58:09.017Z,1004.2
2018-09-03T11:59:10.588Z,1004.3
2018-09-03T12:00:12.231Z,1004.3
2018-09-03T12:01:13.668Z,1004.3
2018-09-03T12:02:15.267Z,1004.3
2018-09-03T12:03:16.713Z,1004.3
2018-09-03T12:04:18.115Z,1004.3
2018-09-03T12:05:19.988Z,1004.3
2018-09-03T12:06:21.444Z,1004.3
2018-09-03T12:07:22.878Z,1004.3
2018-09-03T12:08:24.310Z,1004.3
2018-09-03T12:09:25.785Z,1004.3
2018-09-03T12:10:27.764Z,1004.3
2018-09-03T12:11:29.184Z,1004.3
2018-09-03T12:12:30.698Z,1004.3
2018-09-03T12:13:32.101Z,1004.2
2018-09-03T12:14:33.502Z,1004.2
2018-09-03T12:15:34.905Z,1004.2
2018-09-03T12:16:36.318Z,1004.2
2018-09-03T12:17:37.877Z,1004.2
2018-09-03T12:18:39.315Z,1004.2
2018-09-03T12:19:40.953Z,1004.2
2018-09-03T12:20:42.581Z,1004.2
2018-09-03T12:21:44.080Z,1004.2
2018-09-03T12:22:45.571Z,1004.2
2018-09-03T12:23:46.966Z,1004.2
2018-09-03T12:24:48.360Z,1004.2
2018-09-03T12:25:49.843Z,1004.2
2018-09-03T12:26:51.294Z,1004.2
2018-09-03T12:27:52.693Z,1004.1
2018-09-03T12:28:54.102Z,1004.2
2018-09-03T12:29:55.548Z,1004.1
2018-09-03T12:30:56.971Z,1004.2
2018-09-03T12:31:58.417Z,1004.2
2018-09-03T12:32:59.901Z,1004.1
2018-09-03T12:34:01.364Z,1004.2
2018-09-03T12:35:02.859Z,1004.2
2018-09-03T12:36:04.276Z,1004.2
2018-09-03T12:37:05.743Z,1004.2
2018-09-03T12:38:07.116Z,1004.2
2018-09-03T12:39:08.527Z,1004.2
2018-09-03T12:40:10.069Z,1004.2
2018-09-03T12:41:11.472Z,1004.2
2018-09-03T12:42:13.013Z,1004.2
2018-09-03T12:43:14.504Z,1004.2
2018-09-03T12:44:15.906Z,1004.2
2018-09-03T12:45:17.364Z,1004.2
2018-09-03T12:46:18.785Z,1004.2